sensor_id;sensor_type;location;lat;lon;timestamp;P1;durP1;ratioP1;P2;durP2;ratioP2
37955;SDS011;23776;51.592;7.180;2022-09-17T00:00:09;13.25;;;3.53;;
37955;SDS011;23776;51.592;7.180;2022-09-17T00:02:35;12.10;;;2.00;;
37955;SDS011;23776;51.592;7.180;2022-09-17T00:05:01;11.65;;;2.45;;
37955;SDS011;23776;51.592;7.180;2022-09-17T00:07:27;9.45;;;2.25;;
37955;SDS011;23776;51.592;7.180;2022-09-17T00:09:53;11.15;;;2.58;;
37955;SDS011;23776;51.592;7.180;2022-09-17T00:12:18;12.10;;;3.25;;
37955;SDS011;23776;51.592;7.180;2022-09-17T00:14:44;10.38;;;3.00;;
37955;SDS011;23776;51.592;7.180;2022-09-17T00:17:10;11.00;;;2.92;;
37955;SDS011;23776;51.592;7.180;2022-09-17T00:19:36;13.73;;;3.05;;
37955;SDS011;23776;51.592;7.180;2022-09-17T00:22:01;15.93;;;3.55;;
37955;SDS011;23776;51.592;7.180;2022-09-17T00:24:27;11.27;;;2.85;;
37955;SDS011;23776;51.592;7.180;2022-09-17T00:26:53;19.90;;;3.50;;
37955;SDS011;23776;51.592;7.180;2022-09-17T00:29:19;13.63;;;3.20;;
37955;SDS011;23776;51.592;7.180;2022-09-17T00:31:44;13.90;;;2.47;;
37955;SDS011;23776;51.592;7.180;2022-09-17T00:34:10;19.38;;;3.20;;
37955;SDS011;23776;51.592;7.180;2022-09-17T00:36:36;16.17;;;3.00;;
37955;SDS011;23776;51.592;7.180;2022-09-17T00:39:04;15.00;;;2.90;;
37955;SDS011;23776;51.592;7.180;2022-09-17T00:41:31;11.82;;;2.97;;
37955;SDS011;23776;51.592;7.180;2022-09-17T00:43:59;15.70;;;2.90;;
37955;SDS011;23776;51.592;7.180;2022-09-17T00:46:46;12.48;;;2.75;;
37955;SDS011;23776;51.592;7.180;2022-09-17T00:49:17;14.25;;;3.10;;
37955;SDS011;23776;51.592;7.180;2022-09-17T00:51:48;12.57;;;3.05;;
37955;SDS011;23776;51.592;7.180;2022-09-17T00:54:29;18.52;;;3.15;;
37955;SDS011;23776;51.592;7.180;2022-09-17T00:56:55;18.42;;;3.63;;
37955;SDS011;23776;51.592;7.180;2022-09-17T00:59:22;13.55;;;2.25;;
37955;SDS011;23776;51.592;7.180;2022-09-17T01:01:48;11.93;;;2.78;;
37955;SDS011;23776;51.592;7.180;2022-09-17T01:04:15;11.05;;;2.58;;
37955;SDS011;23776;51.592;7.180;2022-09-17T01:07:01;10.85;;;2.80;;
37955;SDS011;23776;51.592;7.180;2022-09-17T01:32:07;11.52;;;2.33;;
37955;SDS011;23776;51.592;7.180;2022-09-17T01:35:02;15.57;;;3.07;;
37955;SDS011;23776;51.592;7.180;2022-09-17T01:37:35;19.50;;;2.50;;
37955;SDS011;23776;51.592;7.180;2022-09-17T01:40:14;11.68;;;2.13;;
37955;SDS011;23776;51.592;7.180;2022-09-17T01:42:51;26.65;;;2.53;;
37955;SDS011;23776;51.592;7.180;2022-09-17T01:45:38;14.90;;;2.55;;
37955;SDS011;23776;51.592;7.180;2022-09-17T01:48:15;11.63;;;2.72;;
37955;SDS011;23776;51.592;7.180;2022-09-17T01:50:46;19.02;;;3.08;;
37955;SDS011;23776;51.592;7.180;2022-09-17T01:53:16;18.80;;;2.50;;
37955;SDS011;23776;51.592;7.180;2022-09-17T01:55:45;10.70;;;2.92;;
37955;SDS011;23776;51.592;7.180;2022-09-17T01:58:16;26.75;;;3.25;;
37955;SDS011;23776;51.592;7.180;2022-09-17T02:00:52;15.85;;;2.72;;
37955;SDS011;23776;51.592;7.180;2022-09-17T02:03:42;14.27;;;2.72;;
37955;SDS011;23776;51.592;7.180;2022-09-17T02:06:16;19.60;;;2.83;;
37955;SDS011;23776;51.592;7.180;2022-09-17T02:08:50;14.85;;;2.38;;
37955;SDS011;23776;51.592;7.180;2022-09-17T02:13:47;20.52;;;3.22;;
37955;SDS011;23776;51.592;7.180;2022-09-17T02:16:21;12.25;;;2.72;;
37955;SDS011;23776;51.592;7.180;2022-09-17T02:18:49;15.18;;;3.40;;
37955;SDS011;23776;51.592;7.180;2022-09-17T02:21:21;15.82;;;2.67;;
37955;SDS011;23776;51.592;7.180;2022-09-17T02:24:16;23.20;;;3.28;;
37955;SDS011;23776;51.592;7.180;2022-09-17T02:26:49;13.68;;;2.80;;
37955;SDS011;23776;51.592;7.180;2022-09-17T02:29:25;16.60;;;3.45;;
37955;SDS011;23776;51.592;7.180;2022-09-17T02:31:59;14.55;;;2.38;;
37955;SDS011;23776;51.592;7.180;2022-09-17T02:34:26;12.45;;;2.72;;
37955;SDS011;23776;51.592;7.180;2022-09-17T02:36:53;15.80;;;3.28;;
37955;SDS011;23776;51.592;7.180;2022-09-17T02:39:20;14.95;;;2.67;;
37955;SDS011;23776;51.592;7.180;2022-09-17T02:44:59;19.23;;;3.50;;
37955;SDS011;23776;51.592;7.180;2022-09-17T02:48:03;11.77;;;3.20;;
37955;SDS011;23776;51.592;7.180;2022-09-17T03:02:06;23.42;;;3.05;;
37955;SDS011;23776;51.592;7.180;2022-09-17T03:04:35;19.27;;;2.13;;
37955;SDS011;23776;51.592;7.180;2022-09-17T03:07:06;12.65;;;2.95;;
37955;SDS011;23776;51.592;7.180;2022-09-17T03:09:33;14.77;;;1.85;;
37955;SDS011;23776;51.592;7.180;2022-09-17T03:11:59;22.38;;;3.13;;
37955;SDS011;23776;51.592;7.180;2022-09-17T03:14:26;19.35;;;2.13;;
37955;SDS011;23776;51.592;7.180;2022-09-17T03:16:52;23.63;;;3.25;;
37955;SDS011;23776;51.592;7.180;2022-09-17T03:19:17;9.02;;;2.15;;
37955;SDS011;23776;51.592;7.180;2022-09-17T03:21:43;15.20;;;3.63;;
37955;SDS011;23776;51.592;7.180;2022-09-17T03:24:08;19.13;;;2.90;;
37955;SDS011;23776;51.592;7.180;2022-09-17T03:26:35;21.88;;;3.10;;
37955;SDS011;23776;51.592;7.180;2022-09-17T03:29:01;24.50;;;2.80;;
37955;SDS011;23776;51.592;7.180;2022-09-17T03:31:27;22.88;;;2.53;;
37955;SDS011;23776;51.592;7.180;2022-09-17T03:33:53;14.07;;;2.75;;
37955;SDS011;23776;51.592;7.180;2022-09-17T03:36:18;16.63;;;3.53;;
37955;SDS011;23776;51.592;7.180;2022-09-17T03:38:44;15.68;;;2.40;;
37955;SDS011;23776;51.592;7.180;2022-09-17T03:41:09;16.15;;;3.40;;
37955;SDS011;23776;51.592;7.180;2022-09-17T03:43:35;13.30;;;2.33;;
37955;SDS011;23776;51.592;7.180;2022-09-17T03:46:01;23.70;;;3.00;;
37955;SDS011;23776;51.592;7.180;2022-09-17T03:48:27;14.10;;;2.28;;
37955;SDS011;23776;51.592;7.180;2022-09-17T03:50:54;16.38;;;1.92;;
37955;SDS011;23776;51.592;7.180;2022-09-17T03:53:19;22.80;;;2.67;;
37955;SDS011;23776;51.592;7.180;2022-09-17T03:55:45;23.73;;;2.53;;
37955;SDS011;23776;51.592;7.180;2022-09-17T03:58:11;17.10;;;2.55;;
37955;SDS011;23776;51.592;7.180;2022-09-17T04:00:36;18.77;;;2.30;;
37955;SDS011;23776;51.592;7.180;2022-09-17T04:03:05;14.75;;;1.95;;
37955;SDS011;23776;51.592;7.180;2022-09-17T04:05:31;24.55;;;3.05;;
37955;SDS011;23776;51.592;7.180;2022-09-17T04:07:57;20.23;;;2.60;;
37955;SDS011;23776;51.592;7.180;2022-09-17T04:10:23;18.02;;;2.42;;
37955;SDS011;23776;51.592;7.180;2022-09-17T04:12:48;12.73;;;2.40;;
37955;SDS011;23776;51.592;7.180;2022-09-17T04:15:14;22.25;;;2.42;;
37955;SDS011;23776;51.592;7.180;2022-09-17T04:17:40;11.40;;;2.42;;
37955;SDS011;23776;51.592;7.180;2022-09-17T04:20:05;8.05;;;1.80;;
37955;SDS011;23776;51.592;7.180;2022-09-17T04:22:31;11.35;;;1.77;;
37955;SDS011;23776;51.592;7.180;2022-09-17T04:24:57;18.58;;;2.05;;
37955;SDS011;23776;51.592;7.180;2022-09-17T04:27:22;15.68;;;1.88;;
37955;SDS011;23776;51.592;7.180;2022-09-17T04:29:48;14.93;;;1.92;;
37955;SDS011;23776;51.592;7.180;2022-09-17T04:32:14;14.60;;;2.03;;
37955;SDS011;23776;51.592;7.180;2022-09-17T04:34:40;10.00;;;1.90;;
37955;SDS011;23776;51.592;7.180;2022-09-17T04:37:05;12.55;;;1.58;;
37955;SDS011;23776;51.592;7.180;2022-09-17T04:39:31;18.60;;;2.00;;
37955;SDS011;23776;51.592;7.180;2022-09-17T04:41:56;19.55;;;2.25;;
37955;SDS011;23776;51.592;7.180;2022-09-17T04:44:22;10.73;;;1.70;;
37955;SDS011;23776;51.592;7.180;2022-09-17T04:46:48;17.00;;;2.53;;
37955;SDS011;23776;51.592;7.180;2022-09-17T04:49:13;9.27;;;1.50;;
37955;SDS011;23776;51.592;7.180;2022-09-17T04:51:39;18.77;;;1.83;;
37955;SDS011;23776;51.592;7.180;2022-09-17T04:54:04;14.13;;;1.35;;
37955;SDS011;23776;51.592;7.180;2022-09-17T04:56:30;14.27;;;1.88;;
37955;SDS011;23776;51.592;7.180;2022-09-17T04:58:56;10.10;;;1.65;;
37955;SDS011;23776;51.592;7.180;2022-09-17T05:01:21;11.95;;;1.77;;
37955;SDS011;23776;51.592;7.180;2022-09-17T05:03:47;11.88;;;1.63;;
37955;SDS011;23776;51.592;7.180;2022-09-17T05:06:13;14.55;;;1.48;;
37955;SDS011;23776;51.592;7.180;2022-09-17T05:08:39;7.80;;;1.60;;
37955;SDS011;23776;51.592;7.180;2022-09-17T05:11:04;9.82;;;1.42;;
37955;SDS011;23776;51.592;7.180;2022-09-17T05:13:30;14.68;;;1.42;;
37955;SDS011;23776;51.592;7.180;2022-09-17T05:15:55;6.13;;;1.50;;
37955;SDS011;23776;51.592;7.180;2022-09-17T05:18:21;11.60;;;1.33;;
37955;SDS011;23776;51.592;7.180;2022-09-17T05:20:47;6.88;;;1.55;;
37955;SDS011;23776;51.592;7.180;2022-09-17T05:23:13;6.10;;;1.20;;
37955;SDS011;23776;51.592;7.180;2022-09-17T05:25:38;12.25;;;1.30;;
37955;SDS011;23776;51.592;7.180;2022-09-17T05:28:04;17.65;;;2.35;;
37955;SDS011;23776;51.592;7.180;2022-09-17T05:30:30;10.32;;;1.50;;
37955;SDS011;23776;51.592;7.180;2022-09-17T05:32:57;11.57;;;1.70;;
37955;SDS011;23776;51.592;7.180;2022-09-17T05:35:24;11.63;;;1.38;;
37955;SDS011;23776;51.592;7.180;2022-09-17T05:37:49;11.60;;;1.73;;
37955;SDS011;23776;51.592;7.180;2022-09-17T05:40:15;8.55;;;1.40;;
37955;SDS011;23776;51.592;7.180;2022-09-17T05:42:41;14.45;;;1.80;;
37955;SDS011;23776;51.592;7.180;2022-09-17T05:45:06;12.43;;;1.35;;
37955;SDS011;23776;51.592;7.180;2022-09-17T05:47:33;13.85;;;1.63;;
37955;SDS011;23776;51.592;7.180;2022-09-17T05:49:59;14.43;;;1.15;;
37955;SDS011;23776;51.592;7.180;2022-09-17T05:52:25;13.43;;;1.38;;
37955;SDS011;23776;51.592;7.180;2022-09-17T05:54:52;12.02;;;2.00;;
37955;SDS011;23776;51.592;7.180;2022-09-17T05:57:17;13.32;;;1.75;;
37955;SDS011;23776;51.592;7.180;2022-09-17T05:59:44;11.27;;;1.40;;
37955;SDS011;23776;51.592;7.180;2022-09-17T06:02:13;8.48;;;1.08;;
37955;SDS011;23776;51.592;7.180;2022-09-17T06:04:38;10.82;;;1.60;;
37955;SDS011;23776;51.592;7.180;2022-09-17T06:07:04;11.80;;;1.85;;
37955;SDS011;23776;51.592;7.180;2022-09-17T06:09:36;19.38;;;3.25;;
37955;SDS011;23776;51.592;7.180;2022-09-17T06:12:03;7.75;;;1.70;;
37955;SDS011;23776;51.592;7.180;2022-09-17T06:14:29;12.38;;;1.60;;
37955;SDS011;23776;51.592;7.180;2022-09-17T06:16:55;5.88;;;1.10;;
37955;SDS011;23776;51.592;7.180;2022-09-17T06:19:21;9.95;;;1.30;;
37955;SDS011;23776;51.592;7.180;2022-09-17T06:21:46;12.82;;;1.70;;
37955;SDS011;23776;51.592;7.180;2022-09-17T06:24:14;12.77;;;2.95;;
37955;SDS011;23776;51.592;7.180;2022-09-17T06:26:40;7.05;;;1.23;;
37955;SDS011;23776;51.592;7.180;2022-09-17T06:29:05;9.23;;;1.50;;
37955;SDS011;23776;51.592;7.180;2022-09-17T06:31:31;10.15;;;1.77;;
37955;SDS011;23776;51.592;7.180;2022-09-17T06:33:57;13.15;;;2.22;;
37955;SDS011;23776;51.592;7.180;2022-09-17T06:36:23;11.45;;;1.42;;
37955;SDS011;23776;51.592;7.180;2022-09-17T06:38:48;8.48;;;1.30;;
37955;SDS011;23776;51.592;7.180;2022-09-17T06:41:14;9.73;;;1.50;;
37955;SDS011;23776;51.592;7.180;2022-09-17T06:43:41;11.75;;;1.75;;
37955;SDS011;23776;51.592;7.180;2022-09-17T06:46:08;11.68;;;1.48;;
37955;SDS011;23776;51.592;7.180;2022-09-17T06:48:34;16.63;;;2.03;;
37955;SDS011;23776;51.592;7.180;2022-09-17T06:51:01;8.30;;;1.42;;
37955;SDS011;23776;51.592;7.180;2022-09-17T06:53:29;17.75;;;2.40;;
37955;SDS011;23776;51.592;7.180;2022-09-17T06:55:55;16.63;;;1.80;;
37955;SDS011;23776;51.592;7.180;2022-09-17T06:58:22;10.20;;;1.63;;
37955;SDS011;23776;51.592;7.180;2022-09-17T07:00:48;13.60;;;1.50;;
37955;SDS011;23776;51.592;7.180;2022-09-17T07:03:14;9.05;;;1.52;;
37955;SDS011;23776;51.592;7.180;2022-09-17T07:05:41;8.25;;;1.15;;
37955;SDS011;23776;51.592;7.180;2022-09-17T07:08:08;13.57;;;1.55;;
37955;SDS011;23776;51.592;7.180;2022-09-17T07:10:35;9.35;;;1.50;;
37955;SDS011;23776;51.592;7.180;2022-09-17T07:13:01;6.50;;;0.95;;
37955;SDS011;23776;51.592;7.180;2022-09-17T07:15:27;13.75;;;1.65;;
37955;SDS011;23776;51.592;7.180;2022-09-17T07:17:52;8.18;;;1.20;;
37955;SDS011;23776;51.592;7.180;2022-09-17T07:20:18;14.93;;;1.40;;
37955;SDS011;23776;51.592;7.180;2022-09-17T07:22:44;9.77;;;1.67;;
37955;SDS011;23776;51.592;7.180;2022-09-17T07:25:10;12.60;;;1.10;;
37955;SDS011;23776;51.592;7.180;2022-09-17T07:27:35;10.77;;;1.48;;
37955;SDS011;23776;51.592;7.180;2022-09-17T07:30:01;7.78;;;1.52;;
37955;SDS011;23776;51.592;7.180;2022-09-17T07:32:28;12.85;;;1.83;;
37955;SDS011;23776;51.592;7.180;2022-09-17T07:34:55;7.70;;;1.25;;
37955;SDS011;23776;51.592;7.180;2022-09-17T07:37:21;10.25;;;1.92;;
37955;SDS011;23776;51.592;7.180;2022-09-17T07:39:46;11.20;;;1.70;;
37955;SDS011;23776;51.592;7.180;2022-09-17T07:42:12;11.13;;;1.75;;
37955;SDS011;23776;51.592;7.180;2022-09-17T07:44:38;13.25;;;2.03;;
37955;SDS011;23776;51.592;7.180;2022-09-17T07:47:03;10.98;;;1.40;;
37955;SDS011;23776;51.592;7.180;2022-09-17T07:49:29;15.10;;;1.70;;
37955;SDS011;23776;51.592;7.180;2022-09-17T07:51:55;8.60;;;1.65;;
37955;SDS011;23776;51.592;7.180;2022-09-17T07:54:21;10.38;;;1.85;;
37955;SDS011;23776;51.592;7.180;2022-09-17T07:56:47;17.55;;;2.10;;
37955;SDS011;23776;51.592;7.180;2022-09-17T07:59:13;8.02;;;1.50;;
37955;SDS011;23776;51.592;7.180;2022-09-17T08:01:38;12.88;;;2.08;;
37955;SDS011;23776;51.592;7.180;2022-09-17T08:04:04;8.20;;;1.35;;
37955;SDS011;23776;51.592;7.180;2022-09-17T08:06:30;15.68;;;2.40;;
37955;SDS011;23776;51.592;7.180;2022-09-17T08:09:00;8.02;;;1.30;;
37955;SDS011;23776;51.592;7.180;2022-09-17T08:11:26;11.77;;;2.30;;
37955;SDS011;23776;51.592;7.180;2022-09-17T08:13:53;8.25;;;1.45;;
37955;SDS011;23776;51.592;7.180;2022-09-17T08:16:20;5.78;;;1.50;;
37955;SDS011;23776;51.592;7.180;2022-09-17T08:18:46;8.38;;;1.30;;
37955;SDS011;23776;51.592;7.180;2022-09-17T08:21:14;8.95;;;1.33;;
37955;SDS011;23776;51.592;7.180;2022-09-17T08:23:41;9.20;;;1.77;;
37955;SDS011;23776;51.592;7.180;2022-09-17T08:26:15;9.27;;;1.05;;
37955;SDS011;23776;51.592;7.180;2022-09-17T08:28:46;9.20;;;1.40;;
37955;SDS011;23776;51.592;7.180;2022-09-17T08:31:20;6.30;;;1.10;;
37955;SDS011;23776;51.592;7.180;2022-09-17T08:33:48;8.60;;;1.15;;
37955;SDS011;23776;51.592;7.180;2022-09-17T08:36:15;11.57;;;1.67;;
37955;SDS011;23776;51.592;7.180;2022-09-17T08:38:42;7.03;;;1.10;;
37955;SDS011;23776;51.592;7.180;2022-09-17T08:43:35;6.43;;;1.00;;
37955;SDS011;23776;51.592;7.180;2022-09-17T08:46:03;5.80;;;1.05;;
37955;SDS011;23776;51.592;7.180;2022-09-17T08:48:35;8.70;;;1.27;;
37955;SDS011;23776;51.592;7.180;2022-09-17T08:51:06;10.85;;;1.40;;
37955;SDS011;23776;51.592;7.180;2022-09-17T08:54:12;15.13;;;1.65;;
37955;SDS011;23776;51.592;7.180;2022-09-17T09:00:12;7.53;;;1.30;;
37955;SDS011;23776;51.592;7.180;2022-09-17T09:05:29;4.65;;;1.05;;
37955;SDS011;23776;51.592;7.180;2022-09-17T09:08:18;11.80;;;1.17;;
37955;SDS011;23776;51.592;7.180;2022-09-17T09:10:53;2.92;;;0.80;;
37955;SDS011;23776;51.592;7.180;2022-09-17T09:13:22;7.18;;;1.27;;
37955;SDS011;23776;51.592;7.180;2022-09-17T09:16:02;10.55;;;1.58;;
37955;SDS011;23776;51.592;7.180;2022-09-17T09:18:36;7.75;;;1.45;;
37955;SDS011;23776;51.592;7.180;2022-09-17T09:26:46;14.25;;;1.75;;
37955;SDS011;23776;51.592;7.180;2022-09-17T09:29:23;4.43;;;1.20;;
37955;SDS011;23776;51.592;7.180;2022-09-17T09:34:59;6.72;;;1.17;;
37955;SDS011;23776;51.592;7.180;2022-09-17T09:37:36;7.57;;;1.15;;
37955;SDS011;23776;51.592;7.180;2022-09-17T09:40:25;7.47;;;0.90;;
37955;SDS011;23776;51.592;7.180;2022-09-17T09:42:58;6.85;;;1.00;;
37955;SDS011;23776;51.592;7.180;2022-09-17T09:50:48;4.30;;;0.80;;
37955;SDS011;23776;51.592;7.180;2022-09-17T09:58:50;10.00;;;1.52;;
37955;SDS011;23776;51.592;7.180;2022-09-17T10:01:17;9.85;;;1.10;;
37955;SDS011;23776;51.592;7.180;2022-09-17T10:03:47;3.35;;;0.90;;
37955;SDS011;23776;51.592;7.180;2022-09-17T10:06:16;3.95;;;1.25;;
37955;SDS011;23776;51.592;7.180;2022-09-17T10:13:45;11.88;;;6.57;;
37955;SDS011;23776;51.592;7.180;2022-09-17T10:16:24;8.98;;;2.92;;
37955;SDS011;23776;51.592;7.180;2022-09-17T10:21:31;10.95;;;1.67;;
37955;SDS011;23776;51.592;7.180;2022-09-17T10:23:59;6.75;;;1.15;;
37955;SDS011;23776;51.592;7.180;2022-09-17T10:26:27;8.93;;;1.92;;
37955;SDS011;23776;51.592;7.180;2022-09-17T10:28:56;5.57;;;0.93;;
37955;SDS011;23776;51.592;7.180;2022-09-17T10:31:24;9.85;;;1.65;;
37955;SDS011;23776;51.592;7.180;2022-09-17T10:34:02;5.28;;;0.82;;
37955;SDS011;23776;51.592;7.180;2022-09-17T10:36:39;3.85;;;0.90;;
37955;SDS011;23776;51.592;7.180;2022-09-17T10:39:24;2.95;;;0.60;;
37955;SDS011;23776;51.592;7.180;2022-09-17T10:44:28;1.67;;;0.60;;
37955;SDS011;23776;51.592;7.180;2022-09-17T10:47:05;6.38;;;0.80;;
37955;SDS011;23776;51.592;7.180;2022-09-17T10:49:45;1.70;;;0.57;;
37955;SDS011;23776;51.592;7.180;2022-09-17T10:52:23;4.07;;;0.88;;
37955;SDS011;23776;51.592;7.180;2022-09-17T10:57:42;6.68;;;2.97;;
37955;SDS011;23776;51.592;7.180;2022-09-17T11:00:18;4.30;;;1.02;;
37955;SDS011;23776;51.592;7.180;2022-09-17T11:08:12;6.72;;;2.38;;
37955;SDS011;23776;51.592;7.180;2022-09-17T11:21:38;6.40;;;1.95;;
37955;SDS011;23776;51.592;7.180;2022-09-17T11:26:50;4.75;;;1.40;;
37955;SDS011;23776;51.592;7.180;2022-09-17T11:29:26;1.85;;;0.70;;
37955;SDS011;23776;51.592;7.180;2022-09-17T11:37:52;4.50;;;0.82;;
37955;SDS011;23776;51.592;7.180;2022-09-17T11:41:05;1.50;;;0.60;;
37955;SDS011;23776;51.592;7.180;2022-09-17T11:43:23;3.97;;;0.73;;
37955;SDS011;23776;51.592;7.180;2022-09-17T11:51:33;7.95;;;3.08;;
37955;SDS011;23776;51.592;7.180;2022-09-17T11:56:43;6.53;;;1.08;;
37955;SDS011;23776;51.592;7.180;2022-09-17T11:59:33;2.45;;;1.00;;
37955;SDS011;23776;51.592;7.180;2022-09-17T12:02:27;5.50;;;1.75;;
37955;SDS011;23776;51.592;7.180;2022-09-17T12:05:21;6.32;;;1.20;;
37955;SDS011;23776;51.592;7.180;2022-09-17T12:08:03;1.67;;;0.50;;
37955;SDS011;23776;51.592;7.180;2022-09-17T12:10:51;9.20;;;0.93;;
37955;SDS011;23776;51.592;7.180;2022-09-17T12:13:32;10.48;;;1.80;;
37955;SDS011;23776;51.592;7.180;2022-09-17T12:19:23;2.38;;;0.70;;
37955;SDS011;23776;51.592;7.180;2022-09-17T12:22:08;8.10;;;1.48;;
37955;SDS011;23776;51.592;7.180;2022-09-17T12:24:45;4.13;;;0.73;;
37955;SDS011;23776;51.592;7.180;2022-09-17T12:32:43;2.25;;;0.63;;
37955;SDS011;23776;51.592;7.180;2022-09-17T12:43:12;7.15;;;1.40;;
37955;SDS011;23776;51.592;7.180;2022-09-17T12:53:42;3.55;;;0.70;;
37955;SDS011;23776;51.592;7.180;2022-09-17T12:59:17;12.80;;;1.00;;
37955;SDS011;23776;51.592;7.180;2022-09-17T13:15:04;4.20;;;0.52;;
37955;SDS011;23776;51.592;7.180;2022-09-17T13:18:19;1.77;;;0.50;;
37955;SDS011;23776;51.592;7.180;2022-09-17T13:20:46;1.85;;;0.45;;
37955;SDS011;23776;51.592;7.180;2022-09-17T13:23:27;4.85;;;0.95;;
37955;SDS011;23776;51.592;7.180;2022-09-17T13:26:14;2.25;;;0.55;;
37955;SDS011;23776;51.592;7.180;2022-09-17T13:31:09;2.78;;;1.13;;
37955;SDS011;23776;51.592;7.180;2022-09-17T13:33:49;3.75;;;1.00;;
37955;SDS011;23776;51.592;7.180;2022-09-17T13:38:58;9.27;;;1.65;;
37955;SDS011;23776;51.592;7.180;2022-09-17T13:41:25;2.03;;;0.50;;
37955;SDS011;23776;51.592;7.180;2022-09-17T13:43:52;3.83;;;0.75;;
37955;SDS011;23776;51.592;7.180;2022-09-17T13:46:22;4.32;;;0.82;;
37955;SDS011;23776;51.592;7.180;2022-09-17T13:48:51;4.60;;;1.10;;
37955;SDS011;23776;51.592;7.180;2022-09-17T13:53:54;2.33;;;0.80;;
37955;SDS011;23776;51.592;7.180;2022-09-17T13:56:28;4.22;;;0.95;;
37955;SDS011;23776;51.592;7.180;2022-09-17T13:59:06;5.45;;;1.05;;
37955;SDS011;23776;51.592;7.180;2022-09-17T14:18:00;7.35;;;1.10;;
37955;SDS011;23776;51.592;7.180;2022-09-17T14:20:32;2.40;;;1.25;;
37955;SDS011;23776;51.592;7.180;2022-09-17T14:23:01;4.47;;;1.05;;
37955;SDS011;23776;51.592;7.180;2022-09-17T14:25:40;2.45;;;0.80;;
37955;SDS011;23776;51.592;7.180;2022-09-17T14:28:56;7.70;;;1.25;;
37955;SDS011;23776;51.592;7.180;2022-09-17T14:31:16;3.40;;;0.90;;
37955;SDS011;23776;51.592;7.180;2022-09-17T14:33:45;3.80;;;1.08;;
37955;SDS011;23776;51.592;7.180;2022-09-17T14:36:15;7.97;;;1.98;;
37955;SDS011;23776;51.592;7.180;2022-09-17T14:38:44;6.05;;;0.95;;
37955;SDS011;23776;51.592;7.180;2022-09-17T14:43:42;5.47;;;1.48;;
37955;SDS011;23776;51.592;7.180;2022-09-17T14:46:32;2.17;;;0.57;;
37955;SDS011;23776;51.592;7.180;2022-09-17T14:51:47;5.05;;;1.00;;
37955;SDS011;23776;51.592;7.180;2022-09-17T14:54:14;5.22;;;1.00;;
37955;SDS011;23776;51.592;7.180;2022-09-17T14:56:48;5.13;;;1.05;;
37955;SDS011;23776;51.592;7.180;2022-09-17T15:07:27;3.05;;;0.85;;
37955;SDS011;23776;51.592;7.180;2022-09-17T15:10:04;3.88;;;0.85;;
37955;SDS011;23776;51.592;7.180;2022-09-17T15:12:30;4.10;;;0.85;;
37955;SDS011;23776;51.592;7.180;2022-09-17T15:14:56;5.18;;;1.30;;
37955;SDS011;23776;51.592;7.180;2022-09-17T15:17:22;2.08;;;0.50;;
37955;SDS011;23776;51.592;7.180;2022-09-17T15:19:49;9.65;;;0.80;;
37955;SDS011;23776;51.592;7.180;2022-09-17T15:22:22;6.32;;;1.30;;
37955;SDS011;23776;51.592;7.180;2022-09-17T15:24:53;7.97;;;1.23;;
37955;SDS011;23776;51.592;7.180;2022-09-17T15:27:27;6.90;;;1.10;;
37955;SDS011;23776;51.592;7.180;2022-09-17T15:30:02;4.88;;;0.90;;
37955;SDS011;23776;51.592;7.180;2022-09-17T15:32:31;8.63;;;1.90;;
37955;SDS011;23776;51.592;7.180;2022-09-17T15:37:41;6.78;;;1.25;;
37955;SDS011;23776;51.592;7.180;2022-09-17T15:40:12;4.97;;;1.08;;
37955;SDS011;23776;51.592;7.180;2022-09-17T15:42:39;12.32;;;3.03;;
37955;SDS011;23776;51.592;7.180;2022-09-17T15:45:18;10.48;;;1.50;;
37955;SDS011;23776;51.592;7.180;2022-09-17T15:50:27;7.72;;;1.25;;
37955;SDS011;23776;51.592;7.180;2022-09-17T15:55:33;6.97;;;1.08;;
37955;SDS011;23776;51.592;7.180;2022-09-17T15:58:16;5.95;;;0.50;;
37955;SDS011;23776;51.592;7.180;2022-09-17T16:01:48;5.63;;;0.70;;
37955;SDS011;23776;51.592;7.180;2022-09-17T16:11:14;4.07;;;0.98;;
37955;SDS011;23776;51.592;7.180;2022-09-17T16:13:40;8.90;;;2.90;;
37955;SDS011;23776;51.592;7.180;2022-09-17T16:16:05;5.38;;;1.00;;
37955;SDS011;23776;51.592;7.180;2022-09-17T16:18:33;8.57;;;1.40;;
37955;SDS011;23776;51.592;7.180;2022-09-17T16:20:58;7.43;;;1.02;;
37955;SDS011;23776;51.592;7.180;2022-09-17T16:23:24;8.98;;;1.13;;
37955;SDS011;23776;51.592;7.180;2022-09-17T16:25:49;7.07;;;1.10;;
37955;SDS011;23776;51.592;7.180;2022-09-17T16:28:17;8.15;;;3.50;;
37955;SDS011;23776;51.592;7.180;2022-09-17T16:30:44;6.85;;;1.90;;
37955;SDS011;23776;51.592;7.180;2022-09-17T16:33:12;6.50;;;1.10;;
37955;SDS011;23776;51.592;7.180;2022-09-17T16:35:40;3.67;;;1.20;;
37955;SDS011;23776;51.592;7.180;2022-09-17T16:38:08;4.80;;;1.83;;
37955;SDS011;23776;51.592;7.180;2022-09-17T16:40:38;4.80;;;1.92;;
37955;SDS011;23776;51.592;7.180;2022-09-17T16:43:07;11.23;;;3.15;;
37955;SDS011;23776;51.592;7.180;2022-09-17T16:45:33;8.93;;;1.92;;
37955;SDS011;23776;51.592;7.180;2022-09-17T16:47:59;5.85;;;2.05;;
37955;SDS011;23776;51.592;7.180;2022-09-17T16:50:25;17.40;;;2.97;;
37955;SDS011;23776;51.592;7.180;2022-09-17T16:52:51;14.50;;;2.38;;
37955;SDS011;23776;51.592;7.180;2022-09-17T16:55:17;15.18;;;4.07;;
37955;SDS011;23776;51.592;7.180;2022-09-17T16:57:44;13.98;;;3.33;;
37955;SDS011;23776;51.592;7.180;2022-09-17T17:00:10;12.05;;;2.35;;
37955;SDS011;23776;51.592;7.180;2022-09-17T17:02:42;7.20;;;1.65;;
37955;SDS011;23776;51.592;7.180;2022-09-17T17:05:09;12.38;;;2.58;;
37955;SDS011;23776;51.592;7.180;2022-09-17T17:07:35;14.40;;;2.28;;
37955;SDS011;23776;51.592;7.180;2022-09-17T17:10:01;7.40;;;2.53;;
37955;SDS011;23776;51.592;7.180;2022-09-17T17:12:28;12.40;;;3.50;;
37955;SDS011;23776;51.592;7.180;2022-09-17T17:14:54;13.38;;;3.30;;
37955;SDS011;23776;51.592;7.180;2022-09-17T17:17:20;9.50;;;2.72;;
37955;SDS011;23776;51.592;7.180;2022-09-17T17:19:46;16.40;;;5.43;;
37955;SDS011;23776;51.592;7.180;2022-09-17T17:22:12;10.80;;;3.22;;
37955;SDS011;23776;51.592;7.180;2022-09-17T17:24:38;8.48;;;2.38;;
37955;SDS011;23776;51.592;7.180;2022-09-17T17:27:04;14.85;;;3.97;;
37955;SDS011;23776;51.592;7.180;2022-09-17T17:29:30;14.13;;;2.00;;
37955;SDS011;23776;51.592;7.180;2022-09-17T17:31:56;14.73;;;2.00;;
37955;SDS011;23776;51.592;7.180;2022-09-17T17:34:21;12.98;;;1.77;;
37955;SDS011;23776;51.592;7.180;2022-09-17T17:36:50;15.63;;;2.03;;
37955;SDS011;23776;51.592;7.180;2022-09-17T17:39:15;14.07;;;2.17;;
37955;SDS011;23776;51.592;7.180;2022-09-17T17:41:41;6.50;;;1.67;;
37955;SDS011;23776;51.592;7.180;2022-09-17T17:44:07;12.85;;;3.67;;
37955;SDS011;23776;51.592;7.180;2022-09-17T17:46:33;17.55;;;3.13;;
37955;SDS011;23776;51.592;7.180;2022-09-17T17:48:59;13.27;;;3.05;;
37955;SDS011;23776;51.592;7.180;2022-09-17T17:51:24;10.95;;;2.88;;
37955;SDS011;23776;51.592;7.180;2022-09-17T17:53:51;6.53;;;1.98;;
37955;SDS011;23776;51.592;7.180;2022-09-17T17:56:17;12.30;;;3.75;;
37955;SDS011;23776;51.592;7.180;2022-09-17T17:58:44;10.18;;;2.15;;
37955;SDS011;23776;51.592;7.180;2022-09-17T18:01:14;5.18;;;1.40;;
37955;SDS011;23776;51.592;7.180;2022-09-17T18:03:43;6.70;;;1.50;;
37955;SDS011;23776;51.592;7.180;2022-09-17T18:06:08;7.32;;;1.55;;
37955;SDS011;23776;51.592;7.180;2022-09-17T18:08:38;14.10;;;5.75;;
37955;SDS011;23776;51.592;7.180;2022-09-17T18:11:05;11.60;;;3.90;;
37955;SDS011;23776;51.592;7.180;2022-09-17T18:13:32;16.13;;;5.22;;
37955;SDS011;23776;51.592;7.180;2022-09-17T18:16:03;16.70;;;5.75;;
37955;SDS011;23776;51.592;7.180;2022-09-17T18:18:31;15.15;;;4.65;;
37955;SDS011;23776;51.592;7.180;2022-09-17T18:21:01;14.50;;;5.63;;
37955;SDS011;23776;51.592;7.180;2022-09-17T18:23:30;8.25;;;2.55;;